sensor_id;sensor_type;location;lat;lon;timestamp;P1;durP1;ratioP1;P2;durP2;ratioP2
17524;SDS011;40431;52.198;9.902;2023-03-04T00:00:46;13.97;;;6.73;;
17524;SDS011;40431;52.198;9.902;2023-03-04T00:03:12;16.53;;;6.90;;
17524;SDS011;40431;52.198;9.902;2023-03-04T00:05:39;12.67;;;7.43;;
17524;SDS011;40431;52.198;9.902;2023-03-04T00:08:07;12.50;;;7.20;;
17524;SDS011;40431;52.198;9.902;2023-03-04T00:10:33;21.73;;;7.17;;
17524;SDS011;40431;52.198;9.902;2023-03-04T00:12:59;17.17;;;6.07;;
17524;SDS011;40431;52.198;9.902;2023-03-04T00:15:26;12.57;;;6.63;;
17524;SDS011;40431;52.198;9.902;2023-03-04T00:17:52;15.77;;;6.23;;
17524;SDS011;40431;52.198;9.902;2023-03-04T00:20:19;14.93;;;6.43;;
17524;SDS011;40431;52.198;9.902;2023-03-04T00:22:45;11.13;;;6.43;;
17524;SDS011;40431;52.198;9.902;2023-03-04T00:25:13;14.70;;;7.50;;
17524;SDS011;40431;52.198;9.902;2023-03-04T00:27:39;18.97;;;7.47;;
17524;SDS011;40431;52.198;9.902;2023-03-04T00:30:06;14.43;;;6.60;;
17524;SDS011;40431;52.198;9.902;2023-03-04T00:32:33;15.67;;;6.97;;
17524;SDS011;40431;52.198;9.902;2023-03-04T00:35:00;10.93;;;6.20;;
17524;SDS011;40431;52.198;9.902;2023-03-04T00:37:26;15.37;;;5.87;;
17524;SDS011;40431;52.198;9.902;2023-03-04T00:39:52;14.70;;;6.33;;
17524;SDS011;40431;52.198;9.902;2023-03-04T00:42:20;17.27;;;5.50;;
17524;SDS011;40431;52.198;9.902;2023-03-04T00:44:46;18.07;;;6.27;;
17524;SDS011;40431;52.198;9.902;2023-03-04T00:47:13;12.47;;;6.23;;
17524;SDS011;40431;52.198;9.902;2023-03-04T00:49:40;15.23;;;5.40;;
17524;SDS011;40431;52.198;9.902;2023-03-04T00:52:06;13.27;;;5.97;;
17524;SDS011;40431;52.198;9.902;2023-03-04T00:54:32;14.50;;;5.53;;
17524;SDS011;40431;52.198;9.902;2023-03-04T00:56:59;12.83;;;4.97;;
17524;SDS011;40431;52.198;9.902;2023-03-04T00:59:26;11.67;;;5.07;;
17524;SDS011;40431;52.198;9.902;2023-03-04T01:01:53;15.33;;;6.17;;
17524;SDS011;40431;52.198;9.902;2023-03-04T01:04:19;12.80;;;5.23;;
17524;SDS011;40431;52.198;9.902;2023-03-04T01:06:45;17.37;;;5.80;;
17524;SDS011;40431;52.198;9.902;2023-03-04T01:09:12;15.43;;;6.80;;
17524;SDS011;40431;52.198;9.902;2023-03-04T01:11:38;21.03;;;6.33;;
17524;SDS011;40431;52.198;9.902;2023-03-04T01:14:04;17.83;;;6.97;;
17524;SDS011;40431;52.198;9.902;2023-03-04T01:16:32;21.40;;;7.40;;
17524;SDS011;40431;52.198;9.902;2023-03-04T01:18:59;22.27;;;6.43;;
17524;SDS011;40431;52.198;9.902;2023-03-04T01:21:25;18.07;;;6.60;;
17524;SDS011;40431;52.198;9.902;2023-03-04T01:23:52;12.40;;;6.17;;
17524;SDS011;40431;52.198;9.902;2023-03-04T01:26:18;17.50;;;6.13;;
17524;SDS011;40431;52.198;9.902;2023-03-04T01:28:44;14.30;;;5.70;;
17524;SDS011;40431;52.198;9.902;2023-03-04T01:31:11;18.67;;;6.63;;
17524;SDS011;40431;52.198;9.902;2023-03-04T01:33:38;11.17;;;6.10;;
17524;SDS011;40431;52.198;9.902;2023-03-04T01:36:05;14.03;;;5.87;;
17524;SDS011;40431;52.198;9.902;2023-03-04T01:38:31;13.93;;;6.93;;
17524;SDS011;40431;52.198;9.902;2023-03-04T01:40:58;15.33;;;6.90;;
17524;SDS011;40431;52.198;9.902;2023-03-04T01:43:25;9.57;;;5.37;;
17524;SDS011;40431;52.198;9.902;2023-03-04T01:45:53;12.67;;;5.93;;
17524;SDS011;40431;52.198;9.902;2023-03-04T01:48:22;17.30;;;5.67;;
17524;SDS011;40431;52.198;9.902;2023-03-04T01:50:52;22.63;;;6.73;;
17524;SDS011;40431;52.198;9.902;2023-03-04T01:53:19;14.40;;;5.67;;
17524;SDS011;40431;52.198;9.902;2023-03-04T01:55:47;10.10;;;5.70;;
17524;SDS011;40431;52.198;9.902;2023-03-04T01:58:15;16.40;;;6.07;;
17524;SDS011;40431;52.198;9.902;2023-03-04T02:00:41;18.47;;;5.97;;
17524;SDS011;40431;52.198;9.902;2023-03-04T02:03:09;11.53;;;5.87;;
17524;SDS011;40431;52.198;9.902;2023-03-04T02:05:38;12.87;;;5.23;;
17524;SDS011;40431;52.198;9.902;2023-03-04T02:08:09;10.43;;;5.73;;
17524;SDS011;40431;52.198;9.902;2023-03-04T02:10:37;14.90;;;5.60;;
17524;SDS011;40431;52.198;9.902;2023-03-04T02:13:04;10.20;;;4.63;;
17524;SDS011;40431;52.198;9.902;2023-03-04T02:15:31;15.40;;;4.77;;
17524;SDS011;40431;52.198;9.902;2023-03-04T02:17:58;10.20;;;5.03;;
17524;SDS011;40431;52.198;9.902;2023-03-04T02:20:29;12.33;;;5.23;;
17524;SDS011;40431;52.198;9.902;2023-03-04T02:23:04;14.13;;;4.67;;
17524;SDS011;40431;52.198;9.902;2023-03-04T02:25:39;8.50;;;3.67;;
17524;SDS011;40431;52.198;9.902;2023-03-04T02:28:11;10.90;;;4.27;;
17524;SDS011;40431;52.198;9.902;2023-03-04T02:30:38;8.70;;;3.53;;
17524;SDS011;40431;52.198;9.902;2023-03-04T02:33:04;12.10;;;4.20;;
17524;SDS011;40431;52.198;9.902;2023-03-04T02:35:31;16.50;;;3.47;;
17524;SDS011;40431;52.198;9.902;2023-03-04T02:37:57;10.57;;;3.97;;
17524;SDS011;40431;52.198;9.902;2023-03-04T02:40:26;9.50;;;4.67;;
17524;SDS011;40431;52.198;9.902;2023-03-04T02:42:55;10.77;;;3.40;;
17524;SDS011;40431;52.198;9.902;2023-03-04T02:45:33;10.47;;;3.80;;
17524;SDS011;40431;52.198;9.902;2023-03-04T02:48:02;12.87;;;4.33;;
17524;SDS011;40431;52.198;9.902;2023-03-04T02:50:30;12.00;;;5.10;;
17524;SDS011;40431;52.198;9.902;2023-03-04T02:53:01;9.23;;;3.97;;
17524;SDS011;40431;52.198;9.902;2023-03-04T02:55:28;5.30;;;3.00;;
17524;SDS011;40431;52.198;9.902;2023-03-04T02:57:56;6.67;;;3.73;;
17524;SDS011;40431;52.198;9.902;2023-03-04T03:00:22;9.33;;;3.70;;
17524;SDS011;40431;52.198;9.902;2023-03-04T03:02:50;11.33;;;4.37;;
17524;SDS011;40431;52.198;9.902;2023-03-04T03:05:16;11.70;;;4.87;;
17524;SDS011;40431;52.198;9.902;2023-03-04T03:07:43;7.07;;;3.17;;
17524;SDS011;40431;52.198;9.902;2023-03-04T03:10:10;7.33;;;3.00;;
17524;SDS011;40431;52.198;9.902;2023-03-04T03:12:37;12.07;;;3.40;;
17524;SDS011;40431;52.198;9.902;2023-03-04T03:15:03;7.47;;;3.20;;
17524;SDS011;40431;52.198;9.902;2023-03-04T03:17:30;12.43;;;3.03;;
17524;SDS011;40431;52.198;9.902;2023-03-04T03:19:58;8.60;;;3.17;;
17524;SDS011;40431;52.198;9.902;2023-03-04T03:22:24;7.83;;;3.33;;
17524;SDS011;40431;52.198;9.902;2023-03-04T03:24:51;11.33;;;3.23;;
17524;SDS011;40431;52.198;9.902;2023-03-04T03:27:17;10.67;;;3.27;;
17524;SDS011;40431;52.198;9.902;2023-03-04T03:29:43;8.10;;;3.20;;
17524;SDS011;40431;52.198;9.902;2023-03-04T03:32:10;6.47;;;3.03;;
17524;SDS011;40431;52.198;9.902;2023-03-04T03:34:36;8.10;;;3.23;;
17524;SDS011;40431;52.198;9.902;2023-03-04T03:37:04;7.17;;;2.30;;
17524;SDS011;40431;52.198;9.902;2023-03-04T03:39:30;6.03;;;2.40;;
17524;SDS011;40431;52.198;9.902;2023-03-04T03:41:57;4.50;;;2.50;;
17524;SDS011;40431;52.198;9.902;2023-03-04T03:44:23;11.97;;;3.30;;
17524;SDS011;40431;52.198;9.902;2023-03-04T03:46:49;6.93;;;2.83;;
17524;SDS011;40431;52.198;9.902;2023-03-04T03:49:16;9.10;;;3.50;;
17524;SDS011;40431;52.198;9.902;2023-03-04T03:51:42;11.70;;;3.73;;
17524;SDS011;40431;52.198;9.902;2023-03-04T03:54:10;6.10;;;3.10;;
17524;SDS011;40431;52.198;9.902;2023-03-04T03:56:36;6.77;;;2.60;;
17524;SDS011;40431;52.198;9.902;2023-03-04T03:59:02;6.27;;;2.30;;
17524;SDS011;40431;52.198;9.902;2023-03-04T04:01:29;7.20;;;2.47;;
17524;SDS011;40431;52.198;9.902;2023-03-04T04:03:57;9.73;;;3.53;;
17524;SDS011;40431;52.198;9.902;2023-03-04T04:06:24;11.60;;;4.07;;
17524;SDS011;40431;52.198;9.902;2023-03-04T04:08:50;7.43;;;3.23;;
17524;SDS011;40431;52.198;9.902;2023-03-04T04:11:18;10.67;;;3.60;;
17524;SDS011;40431;52.198;9.902;2023-03-04T04:13:44;13.27;;;3.80;;
17524;SDS011;40431;52.198;9.902;2023-03-04T04:16:10;6.07;;;2.77;;
17524;SDS011;40431;52.198;9.902;2023-03-04T04:18:37;8.03;;;2.97;;
17524;SDS011;40431;52.198;9.902;2023-03-04T04:21:04;9.30;;;3.80;;
17524;SDS011;40431;52.198;9.902;2023-03-04T04:23:30;5.43;;;2.53;;
17524;SDS011;40431;52.198;9.902;2023-03-04T04:25:57;6.00;;;3.10;;
17524;SDS011;40431;52.198;9.902;2023-03-04T04:28:25;7.50;;;3.73;;
17524;SDS011;40431;52.198;9.902;2023-03-04T04:30:51;6.53;;;2.80;;
17524;SDS011;40431;52.198;9.902;2023-03-04T04:33:17;13.10;;;3.50;;
17524;SDS011;40431;52.198;9.902;2023-03-04T04:35:44;6.73;;;2.57;;
17524;SDS011;40431;52.198;9.902;2023-03-04T04:38:10;4.17;;;2.83;;
17524;SDS011;40431;52.198;9.902;2023-03-04T04:40:36;9.67;;;4.00;;
17524;SDS011;40431;52.198;9.902;2023-03-04T04:43:03;8.83;;;3.03;;
17524;SDS011;40431;52.198;9.902;2023-03-04T04:45:30;6.47;;;2.80;;
17524;SDS011;40431;52.198;9.902;2023-03-04T04:47:57;15.63;;;4.00;;
17524;SDS011;40431;52.198;9.902;2023-03-04T04:50:23;6.70;;;2.97;;
17524;SDS011;40431;52.198;9.902;2023-03-04T04:52:50;5.27;;;2.67;;
17524;SDS011;40431;52.198;9.902;2023-03-04T04:55:17;7.23;;;3.03;;
17524;SDS011;40431;52.198;9.902;2023-03-04T04:57:43;6.57;;;3.13;;
17524;SDS011;40431;52.198;9.902;2023-03-04T05:00:10;7.67;;;3.30;;
17524;SDS011;40431;52.198;9.902;2023-03-04T05:02:39;4.93;;;2.97;;
17524;SDS011;40431;52.198;9.902;2023-03-04T05:05:05;9.70;;;3.50;;
17524;SDS011;40431;52.198;9.902;2023-03-04T05:07:32;6.53;;;3.40;;
17524;SDS011;40431;52.198;9.902;2023-03-04T05:09:59;13.43;;;3.50;;
17524;SDS011;40431;52.198;9.902;2023-03-04T05:12:25;7.87;;;4.17;;
17524;SDS011;40431;52.198;9.902;2023-03-04T05:14:52;7.83;;;3.60;;
17524;SDS011;40431;52.198;9.902;2023-03-04T05:17:18;7.83;;;3.20;;
17524;SDS011;40431;52.198;9.902;2023-03-04T05:19:46;6.00;;;3.00;;
17524;SDS011;40431;52.198;9.902;2023-03-04T05:22:12;11.97;;;3.73;;
17524;SDS011;40431;52.198;9.902;2023-03-04T05:24:38;7.77;;;3.67;;
17524;SDS011;40431;52.198;9.902;2023-03-04T05:27:05;10.13;;;3.03;;
17524;SDS011;40431;52.198;9.902;2023-03-04T05:29:31;5.10;;;2.80;;
17524;SDS011;40431;52.198;9.902;2023-03-04T05:31:57;8.37;;;3.00;;
17524;SDS011;40431;52.198;9.902;2023-03-04T05:34:24;8.17;;;2.87;;
17524;SDS011;40431;52.198;9.902;2023-03-04T05:36:51;7.87;;;3.10;;
17524;SDS011;40431;52.198;9.902;2023-03-04T05:39:18;5.23;;;2.47;;
17524;SDS011;40431;52.198;9.902;2023-03-04T05:41:44;5.83;;;2.33;;
17524;SDS011;40431;52.198;9.902;2023-03-04T05:44:10;6.23;;;3.13;;
17524;SDS011;40431;52.198;9.902;2023-03-04T05:46:36;6.83;;;2.93;;
17524;SDS011;40431;52.198;9.902;2023-03-04T05:49:03;6.63;;;3.10;;
17524;SDS011;40431;52.198;9.902;2023-03-04T05:51:29;5.67;;;3.13;;
17524;SDS011;40431;52.198;9.902;2023-03-04T05:53:57;7.77;;;3.50;;
17524;SDS011;40431;52.198;9.902;2023-03-04T05:56:23;4.93;;;2.53;;
17524;SDS011;40431;52.198;9.902;2023-03-04T05:58:50;5.47;;;3.03;;
17524;SDS011;40431;52.198;9.902;2023-03-04T06:01:16;4.00;;;2.97;;
17524;SDS011;40431;52.198;9.902;2023-03-04T06:03:43;6.10;;;2.90;;
17524;SDS011;40431;52.198;9.902;2023-03-04T06:06:09;3.80;;;2.93;;
17524;SDS011;40431;52.198;9.902;2023-03-04T06:08:35;7.50;;;3.27;;
17524;SDS011;40431;52.198;9.902;2023-03-04T06:11:03;8.93;;;3.33;;
17524;SDS011;40431;52.198;9.902;2023-03-04T06:13:30;6.43;;;3.60;;
17524;SDS011;40431;52.198;9.902;2023-03-04T06:15:57;3.90;;;3.00;;
17524;SDS011;40431;52.198;9.902;2023-03-04T06:18:25;4.83;;;2.77;;
17524;SDS011;40431;52.198;9.902;2023-03-04T06:20:54;7.40;;;6.73;;
17524;SDS011;40431;52.198;9.902;2023-03-04T06:23:21;9.30;;;4.77;;
17524;SDS011;40431;52.198;9.902;2023-03-04T06:25:50;6.60;;;4.87;;
17524;SDS011;40431;52.198;9.902;2023-03-04T06:28:18;9.50;;;4.40;;
17524;SDS011;40431;52.198;9.902;2023-03-04T06:30:44;8.50;;;4.70;;
17524;SDS011;40431;52.198;9.902;2023-03-04T06:33:11;4.53;;;2.63;;
17524;SDS011;40431;52.198;9.902;2023-03-04T06:35:37;4.23;;;3.70;;
17524;SDS011;40431;52.198;9.902;2023-03-04T06:38:04;6.53;;;3.30;;
17524;SDS011;40431;52.198;9.902;2023-03-04T06:40:30;5.87;;;3.00;;
17524;SDS011;40431;52.198;9.902;2023-03-04T06:42:57;5.37;;;2.70;;
17524;SDS011;40431;52.198;9.902;2023-03-04T06:45:24;4.50;;;3.07;;
17524;SDS011;40431;52.198;9.902;2023-03-04T06:47:51;5.57;;;2.50;;
17524;SDS011;40431;52.198;9.902;2023-03-04T06:50:17;4.47;;;2.73;;
17524;SDS011;40431;52.198;9.902;2023-03-04T06:52:44;6.20;;;3.43;;
17524;SDS011;40431;52.198;9.902;2023-03-04T06:55:10;5.43;;;3.10;;
17524;SDS011;40431;52.198;9.902;2023-03-04T06:57:37;5.93;;;3.07;;
17524;SDS011;40431;52.198;9.902;2023-03-04T07:00:04;6.37;;;3.33;;
17524;SDS011;40431;52.198;9.902;2023-03-04T07:02:33;6.03;;;3.40;;
17524;SDS011;40431;52.198;9.902;2023-03-04T07:04:59;8.60;;;3.40;;
17524;SDS011;40431;52.198;9.902;2023-03-04T07:07:26;8.87;;;3.07;;
17524;SDS011;40431;52.198;9.902;2023-03-04T07:09:52;3.83;;;3.43;;
17524;SDS011;40431;52.198;9.902;2023-03-04T07:12:18;7.43;;;3.80;;
17524;SDS011;40431;52.198;9.902;2023-03-04T07:14:45;9.23;;;2.67;;
17524;SDS011;40431;52.198;9.902;2023-03-04T07:17:11;3.77;;;3.10;;
17524;SDS011;40431;52.198;9.902;2023-03-04T07:19:39;4.23;;;3.20;;
17524;SDS011;40431;52.198;9.902;2023-03-04T07:22:05;7.13;;;3.20;;
17524;SDS011;40431;52.198;9.902;2023-03-04T07:24:32;4.83;;;3.53;;
17524;SDS011;40431;52.198;9.902;2023-03-04T07:26:58;5.30;;;3.63;;
17524;SDS011;40431;52.198;9.902;2023-03-04T07:29:25;4.73;;;3.73;;
17524;SDS011;40431;52.198;9.902;2023-03-04T07:31:51;6.03;;;3.93;;
17524;SDS011;40431;52.198;9.902;2023-03-04T07:34:17;3.97;;;2.90;;
17524;SDS011;40431;52.198;9.902;2023-03-04T07:36:45;6.73;;;3.10;;
17524;SDS011;40431;52.198;9.902;2023-03-04T07:39:12;4.87;;;3.53;;
17524;SDS011;40431;52.198;9.902;2023-03-04T07:41:38;3.67;;;2.77;;
17524;SDS011;40431;52.198;9.902;2023-03-04T07:44:06;4.47;;;2.63;;
17524;SDS011;40431;52.198;9.902;2023-03-04T07:46:33;5.67;;;2.77;;
17524;SDS011;40431;52.198;9.902;2023-03-04T07:49:00;3.37;;;2.20;;
17524;SDS011;40431;52.198;9.902;2023-03-04T07:51:26;5.20;;;2.50;;
17524;SDS011;40431;52.198;9.902;2023-03-04T07:53:55;4.53;;;2.83;;
17524;SDS011;40431;52.198;9.902;2023-03-04T07:56:24;3.50;;;2.27;;
17524;SDS011;40431;52.198;9.902;2023-03-04T07:58:52;3.43;;;2.27;;
17524;SDS011;40431;52.198;9.902;2023-03-04T08:01:20;3.63;;;3.33;;
17524;SDS011;40431;52.198;9.902;2023-03-04T08:03:48;3.10;;;2.20;;
17524;SDS011;40431;52.198;9.902;2023-03-04T08:06:15;6.23;;;2.77;;
17524;SDS011;40431;52.198;9.902;2023-03-04T08:08:43;3.57;;;2.53;;
17524;SDS011;40431;52.198;9.902;2023-03-04T08:11:12;3.27;;;2.43;;
17524;SDS011;40431;52.198;9.902;2023-03-04T08:13:40;9.57;;;3.00;;
17524;SDS011;40431;52.198;9.902;2023-03-04T08:16:06;7.60;;;4.73;;
17524;SDS011;40431;52.198;9.902;2023-03-04T08:18:33;5.20;;;4.50;;
17524;SDS011;40431;52.198;9.902;2023-03-04T08:20:59;5.03;;;4.47;;
17524;SDS011;40431;52.198;9.902;2023-03-04T08:23:26;6.20;;;4.80;;
17524;SDS011;40431;52.198;9.902;2023-03-04T08:25:52;3.27;;;2.97;;
17524;SDS011;40431;52.198;9.902;2023-03-04T08:28:20;3.77;;;2.80;;
17524;SDS011;40431;52.198;9.902;2023-03-04T08:30:51;3.57;;;3.27;;
17524;SDS011;40431;52.198;9.902;2023-03-04T08:33:18;7.60;;;4.30;;
17524;SDS011;40431;52.198;9.902;2023-03-04T08:35:44;3.80;;;3.20;;
17524;SDS011;40431;52.198;9.902;2023-03-04T08:38:10;2.87;;;2.60;;
17524;SDS011;40431;52.198;9.902;2023-03-04T08:40:37;2.63;;;2.43;;
17524;SDS011;40431;52.198;9.902;2023-03-04T08:43:03;3.50;;;2.27;;
17524;SDS011;40431;52.198;9.902;2023-03-04T08:45:31;2.97;;;2.50;;
17524;SDS011;40431;52.198;9.902;2023-03-04T08:47:57;7.70;;;4.27;;
17524;SDS011;40431;52.198;9.902;2023-03-04T08:50:24;3.87;;;3.50;;
17524;SDS011;40431;52.198;9.902;2023-03-04T08:52:51;4.07;;;3.30;;
17524;SDS011;40431;52.198;9.902;2023-03-04T08:55:17;4.37;;;3.40;;
17524;SDS011;40431;52.198;9.902;2023-03-04T08:57:44;5.10;;;3.00;;
17524;SDS011;40431;52.198;9.902;2023-03-04T09:00:11;11.60;;;3.30;;
17524;SDS011;40431;52.198;9.902;2023-03-04T09:02:39;3.97;;;3.37;;
17524;SDS011;40431;52.198;9.902;2023-03-04T09:05:06;3.53;;;3.10;;
17524;SDS011;40431;52.198;9.902;2023-03-04T09:07:33;2.60;;;2.40;;
17524;SDS011;40431;52.198;9.902;2023-03-04T09:09:59;3.93;;;3.20;;
17524;SDS011;40431;52.198;9.902;2023-03-04T09:12:25;3.20;;;2.90;;
17524;SDS011;40431;52.198;9.902;2023-03-04T09:14:52;3.17;;;2.87;;
17524;SDS011;40431;52.198;9.902;2023-03-04T09:17:18;4.87;;;3.27;;
17524;SDS011;40431;52.198;9.902;2023-03-04T09:19:46;3.13;;;2.90;;
17524;SDS011;40431;52.198;9.902;2023-03-04T09:22:12;2.83;;;2.50;;
17524;SDS011;40431;52.198;9.902;2023-03-04T09:24:39;3.50;;;2.90;;
17524;SDS011;40431;52.198;9.902;2023-03-04T09:27:05;3.67;;;2.80;;
17524;SDS011;40431;52.198;9.902;2023-03-04T09:29:31;3.10;;;2.80;;
17524;SDS011;40431;52.198;9.902;2023-03-04T09:31:58;3.17;;;2.87;;
17524;SDS011;40431;52.198;9.902;2023-03-04T09:34:24;2.80;;;2.60;;
17524;SDS011;40431;52.198;9.902;2023-03-04T09:36:52;2.23;;;2.10;;
17524;SDS011;40431;52.198;9.902;2023-03-04T09:39:18;2.93;;;2.67;;
17524;SDS011;40431;52.198;9.902;2023-03-04T09:41:45;4.13;;;2.77;;
17524;SDS011;40431;52.198;9.902;2023-03-04T09:44:14;3.83;;;2.53;;
17524;SDS011;40431;52.198;9.902;2023-03-04T09:46:46;5.53;;;2.63;;
17524;SDS011;40431;52.198;9.902;2023-03-04T09:49:14;3.17;;;2.90;;
17524;SDS011;40431;52.198;9.902;2023-03-04T09:51:43;4.90;;;2.17;;
17524;SDS011;40431;52.198;9.902;2023-03-04T09:54:16;3.93;;;2.60;;
17524;SDS011;40431;52.198;9.902;2023-03-04T09:56:51;3.23;;;2.90;;
17524;SDS011;40431;52.198;9.902;2023-03-04T09:59:27;3.10;;;2.80;;
17524;SDS011;40431;52.198;9.902;2023-03-04T10:01:57;4.73;;;2.90;;
17524;SDS011;40431;52.198;9.902;2023-03-04T10:04:29;3.43;;;2.60;;
17524;SDS011;40431;52.198;9.902;2023-03-04T10:07:00;3.20;;;2.87;;
17524;SDS011;40431;52.198;9.902;2023-03-04T10:09:29;8.13;;;3.10;;
17524;SDS011;40431;52.198;9.902;2023-03-04T10:12:11;4.87;;;3.47;;
17524;SDS011;40431;52.198;9.902;2023-03-04T10:14:39;5.33;;;3.20;;
17524;SDS011;40431;52.198;9.902;2023-03-04T10:17:12;4.87;;;3.30;;
17524;SDS011;40431;52.198;9.902;2023-03-04T10:19:50;6.53;;;4.20;;
17524;SDS011;40431;52.198;9.902;2023-03-04T10:22:22;5.13;;;3.43;;
17524;SDS011;40431;52.198;9.902;2023-03-04T10:24:55;8.23;;;3.93;;
17524;SDS011;40431;52.198;9.902;2023-03-04T10:27:23;6.80;;;3.63;;
17524;SDS011;40431;52.198;9.902;2023-03-04T10:29:51;4.60;;;3.40;;
17524;SDS011;40431;52.198;9.902;2023-03-04T10:32:18;10.23;;;3.50;;
17524;SDS011;40431;52.198;9.902;2023-03-04T10:34:45;5.23;;;3.40;;
17524;SDS011;40431;52.198;9.902;2023-03-04T10:37:12;7.60;;;3.27;;
17524;SDS011;40431;52.198;9.902;2023-03-04T10:39:39;6.90;;;3.57;;
17524;SDS011;40431;52.198;9.902;2023-03-04T10:42:22;6.27;;;3.53;;
17524;SDS011;40431;52.198;9.902;2023-03-04T10:44:52;5.93;;;2.83;;
17524;SDS011;40431;52.198;9.902;2023-03-04T10:47:22;6.80;;;3.00;;
17524;SDS011;40431;52.198;9.902;2023-03-04T10:49:50;6.80;;;3.00;;
17524;SDS011;40431;52.198;9.902;2023-03-04T10:52:19;6.20;;;3.00;;
17524;SDS011;40431;52.198;9.902;2023-03-04T10:54:52;8.53;;;3.87;;
17524;SDS011;40431;52.198;9.902;2023-03-04T10:57:22;5.60;;;3.00;;
17524;SDS011;40431;52.198;9.902;2023-03-04T10:59:54;11.03;;;4.37;;
17524;SDS011;40431;52.198;9.902;2023-03-04T11:02:23;8.43;;;3.00;;
17524;SDS011;40431;52.198;9.902;2023-03-04T11:04:53;6.37;;;3.40;;
17524;SDS011;40431;52.198;9.902;2023-03-04T11:07:22;4.20;;;3.10;;
17524;SDS011;40431;52.198;9.902;2023-03-04T11:09:50;9.23;;;3.13;;
17524;SDS011;40431;52.198;9.902;2023-03-04T11:12:18;4.50;;;2.27;;
17524;SDS011;40431;52.198;9.902;2023-03-04T11:14:47;7.33;;;2.30;;
17524;SDS011;40431;52.198;9.902;2023-03-04T11:17:17;4.77;;;2.63;;
17524;SDS011;40431;52.198;9.902;2023-03-04T11:19:50;6.57;;;2.60;;
17524;SDS011;40431;52.198;9.902;2023-03-04T11:22:21;4.20;;;2.50;;
17524;SDS011;40431;52.198;9.902;2023-03-04T11:24:53;3.50;;;2.40;;
17524;SDS011;40431;52.198;9.902;2023-03-04T11:27:23;5.70;;;2.90;;
17524;SDS011;40431;52.198;9.902;2023-03-04T11:30:02;3.53;;;2.50;;
17524;SDS011;40431;52.198;9.902;2023-03-04T11:32:44;6.03;;;2.43;;
17524;SDS011;40431;52.198;9.902;2023-03-04T11:35:14;6.70;;;2.40;;
17524;SDS011;40431;52.198;9.902;2023-03-04T11:37:50;4.50;;;2.20;;
17524;SDS011;40431;52.198;9.902;2023-03-04T11:40:27;5.57;;;2.80;;
17524;SDS011;40431;52.198;9.902;2023-03-04T11:42:58;5.57;;;2.77;;
17524;SDS011;40431;52.198;9.902;2023-03-04T11:45:33;8.63;;;3.97;;
17524;SDS011;40431;52.198;9.902;2023-03-04T11:48:14;5.77;;;3.97;;
17524;SDS011;40431;52.198;9.902;2023-03-04T11:50:49;6.53;;;3.80;;
17524;SDS011;40431;52.198;9.902;2023-03-04T11:53:21;8.10;;;4.47;;
17524;SDS011;40431;52.198;9.902;2023-03-04T11:55:56;5.17;;;4.20;;
17524;SDS011;40431;52.198;9.902;2023-03-04T11:58:44;5.73;;;3.57;;
17524;SDS011;40431;52.198;9.902;2023-03-04T12:01:22;5.67;;;3.47;;
17524;SDS011;40431;52.198;9.902;2023-03-04T12:04:03;7.20;;;3.73;;
17524;SDS011;40431;52.198;9.902;2023-03-04T12:06:43;3.13;;;2.30;;
17524;SDS011;40431;52.198;9.902;2023-03-04T12:09:24;4.77;;;2.67;;
17524;SDS011;40431;52.198;9.902;2023-03-04T12:12:03;5.40;;;2.80;;
17524;SDS011;40431;52.198;9.902;2023-03-04T12:14:49;2.87;;;2.33;;
17524;SDS011;40431;52.198;9.902;2023-03-04T12:17:30;2.60;;;1.80;;
17524;SDS011;40431;52.198;9.902;2023-03-04T12:20:14;5.17;;;2.27;;
17524;SDS011;40431;52.198;9.902;2023-03-04T12:22:51;5.07;;;2.67;;
17524;SDS011;40431;52.198;9.902;2023-03-04T12:25:31;7.90;;;2.63;;
17524;SDS011;40431;52.198;9.902;2023-03-04T12:28:03;8.43;;;2.60;;
17524;SDS011;40431;52.198;9.902;2023-03-04T12:30:50;6.17;;;2.43;;
17524;SDS011;40431;52.198;9.902;2023-03-04T12:33:31;4.83;;;2.10;;
17524;SDS011;40431;52.198;9.902;2023-03-04T12:36:07;5.43;;;2.67;;
17524;SDS011;40431;52.198;9.902;2023-03-04T12:38:44;5.77;;;2.90;;
17524;SDS011;40431;52.198;9.902;2023-03-04T12:41:24;6.53;;;3.07;;
17524;SDS011;40431;52.198;9.902;2023-03-04T12:43:59;3.33;;;2.50;;
17524;SDS011;40431;52.198;9.902;2023-03-04T12:46:42;7.03;;;3.77;;
17524;SDS011;40431;52.198;9.902;2023-03-04T12:52:14;3.33;;;2.23;;
17524;SDS011;40431;52.198;9.902;2023-03-04T12:54:48;5.13;;;2.13;;
17524;SDS011;40431;52.198;9.902;2023-03-04T12:57:21;5.97;;;3.80;;
17524;SDS011;40431;52.198;9.902;2023-03-04T12:59:50;6.23;;;2.43;;
17524;SDS011;40431;52.198;9.902;2023-03-04T13:02:33;5.37;;;2.47;;
17524;SDS011;40431;52.198;9.902;2023-03-04T13:05:16;4.23;;;1.90;;
17524;SDS011;40431;52.198;9.902;2023-03-04T13:07:51;4.80;;;2.23;;
17524;SDS011;40431;52.198;9.902;2023-03-04T13:10:22;4.50;;;2.37;;
17524;SDS011;40431;52.198;9.902;2023-03-04T13:12:50;5.10;;;2.47;;
17524;SDS011;40431;52.198;9.902;2023-03-04T13:15:26;5.40;;;2.47;;
17524;SDS011;40431;52.198;9.902;2023-03-04T13:17:55;5.20;;;2.70;;
17524;SDS011;40431;52.198;9.902;2023-03-04T13:20:31;8.13;;;2.87;;
17524;SDS011;40431;52.198;9.902;2023-03-04T13:23:03;16.47;;;3.87;;
17524;SDS011;40431;52.198;9.902;2023-03-04T13:26:05;4.00;;;1.90;;
17524;SDS011;40431;52.198;9.902;2023-03-04T13:28:41;4.10;;;2.07;;
17524;SDS011;40431;52.198;9.902;2023-03-04T13:31:18;6.23;;;2.63;;
17524;SDS011;40431;52.198;9.902;2023-03-04T13:33:53;5.07;;;2.27;;
17524;SDS011;40431;52.198;9.902;2023-03-04T13:36:33;5.73;;;2.50;;
17524;SDS011;40431;52.198;9.902;2023-03-04T13:45:27;4.77;;;2.43;;
17524;SDS011;40431;52.198;9.902;2023-03-04T13:47:55;4.23;;;3.10;;
17524;SDS011;40431;52.198;9.902;2023-03-04T13:50:23;3.57;;;2.00;;
17524;SDS011;40431;52.198;9.902;2023-03-04T13:52:58;3.13;;;2.00;;
17524;SDS011;40431;52.198;9.902;2023-03-04T13:55:33;6.87;;;3.00;;
17524;SDS011;40431;52.198;9.902;2023-03-04T13:58:11;8.00;;;3.30;;
17524;SDS011;40431;52.198;9.902;2023-03-04T14:00:45;5.40;;;2.27;;
17524;SDS011;40431;52.198;9.902;2023-03-04T14:03:16;4.93;;;3.03;;
17524;SDS011;40431;52.198;9.902;2023-03-04T14:05:46;5.40;;;3.20;;
17524;SDS011;40431;52.198;9.902;2023-03-04T14:08:17;11.20;;;3.47;;
17524;SDS011;40431;52.198;9.902;2023-03-04T14:10:44;5.93;;;2.77;;
17524;SDS011;40431;52.198;9.902;2023-03-04T14:13:20;5.73;;;3.07;;
17524;SDS011;40431;52.198;9.902;2023-03-04T14:15:52;5.83;;;3.03;;
17524;SDS011;40431;52.198;9.902;2023-03-04T14:18:19;7.03;;;2.80;;
17524;SDS011;40431;52.198;9.902;2023-03-04T14:20:48;4.80;;;2.67;;
17524;SDS011;40431;52.198;9.902;2023-03-04T14:23:24;7.50;;;2.97;;
17524;SDS011;40431;52.198;9.902;2023-03-04T14:25:59;5.30;;;2.70;;
17524;SDS011;40431;52.198;9.902;2023-03-04T14:28:29;6.43;;;2.57;;
17524;SDS011;40431;52.198;9.902;2023-03-04T14:30:55;4.37;;;2.60;;
17524;SDS011;40431;52.198;9.902;2023-03-04T14:33:23;5.07;;;2.27;;
17524;SDS011;40431;52.198;9.902;2023-03-04T14:35:52;7.80;;;3.80;;
17524;SDS011;40431;52.198;9.902;2023-03-04T14:38:23;6.73;;;2.83;;
17524;SDS011;40431;52.198;9.902;2023-03-04T14:40:54;4.87;;;3.10;;
17524;SDS011;40431;52.198;9.902;2023-03-04T14:43:25;4.80;;;2.90;;
17524;SDS011;40431;52.198;9.902;2023-03-04T14:45:54;8.77;;;3.53;;
17524;SDS011;40431;52.198;9.902;2023-03-04T14:48:26;6.73;;;3.63;;
17524;SDS011;40431;52.198;9.902;2023-03-04T14:50:56;7.73;;;4.60;;
17524;SDS011;40431;52.198;9.902;2023-03-04T14:53:25;6.77;;;3.83;;
17524;SDS011;40431;52.198;9.902;2023-03-04T14:55:54;5.47;;;3.83;;
17524;SDS011;40431;52.198;9.902;2023-03-04T14:58:22;6.07;;;3.87;;
17524;SDS011;40431;52.198;9.902;2023-03-04T15:01:01;11.93;;;2.97;;
17524;SDS011;40431;52.198;9.902;2023-03-04T15:03:29;8.50;;;3.53;;
17524;SDS011;40431;52.198;9.902;2023-03-04T15:06:04;6.90;;;3.03;;